KOLF/OLF METAR and TAF weather

Enter ICAO airport designator
Station Type Date Time Source
KOLF METAR 2022/12/01 03:53 UTC NOAA

KOLF 010353Z AUTO 07008KT 10SM CLR M10/M14 A2976 RMK AO2 SLP122 T11001144


Station Type Date Time Source
KOLF Decoded METAR 2022/12/01 03:53 UTC NOAA

WOLF POINT CLAYTON AIRPORT, MT, United States (KOLF) 48-06N 105-35W 604M
Nov 30, 2022 - 10:53 PM EST / 2022.12.01 0353 UTC
Wind: from the ENE (070 degrees) at 9 MPH (8 KT):0
Visibility: 10 mile(s):0
Sky conditions: clear
Temperature: 14.0 F (-10.0 C)
Windchill: 1 F (-17 C):1
Dew Point: 6.1 F (-14.4 C)
Relative Humidity: 70%
Pressure (altimeter): 29.76 in. Hg (1007 hPa)
ob: KOLF 010353Z AUTO 07008KT 10SM CLR M10/M14 A2976 RMK AO2 SLP122 T11001144
cycle: 4

Station Type Date Time Source
KOLF TAF 2022/12/05 12:27 UTC NOAA

TAF KOLF 051125Z 0512/0612 VRB05KT P6SM OVC070 PROB30 0523/0524 1 1/2SM -SN BR OVC006
FM060000 09007KT 1SM -SN BR OVC022
FM060100 08008KT 1/2SM SN OVC022
FM060300 09009KT 1SM -SN BR OVC018
FM060500 07009KT P6SM OVC015 PROB30 0605/0607 1SM -SN BR OVC005
AMD NOT SKED

Example: see airport list